Time;durP1;ratioP1;P1;durP2;ratioP2;P2;SDS_P1;SDS_P2;PMS_P1;PMS_P2;Temp;Humidity;BMP_temperature;BMP_pressure;BME280_temperature;BME280_humidity;BME280_pressure;Samples;Min_cycle;Max_cycle;Signal;HPM_P1;HPM_P2
2023/01/20 00:01:47;;;;;;;;;;;5.10;87.30;;;4.01;69.92;99985.72;6151761;23;19999;-82
2023/01/20 00:04:17;;;;;;;;;;;5.10;87.20;;;4.04;70.11;99987.19;6151935;23;19916;-82
2023/01/20 00:06:44;;;;;;;;;;;5.10;87.10;;;4.03;69.75;99988.19;6173763;23;20255;-82
2023/01/20 00:09:14;;;;;;;;;;;5.10;87.00;;;4.01;70.13;99988.38;6152166;23;20323;-82
2023/01/20 00:11:41;;;;;;;;;;;5.10;87.10;;;4.02;70.17;99992.63;6151371;23;20349;-81
2023/01/20 00:14:09;;;;;;;;;;;5.10;87.10;;;4.04;70.10;99993.28;6151598;23;19916;-82
2023/01/20 00:16:38;;;;;;;;;;;5.20;87.00;;;4.03;69.53;99996.91;6151623;23;19940;-82
2023/01/20 00:19:05;;;;;;;;;;;5.20;86.80;;;4.01;70.03;99998.09;6152154;23;19920;-82
2023/01/20 00:21:33;;;;;;;;;;;5.10;87.10;;;4.02;70.05;100002.38;6150057;23;19920;-82
2023/01/20 00:24:00;;;;;;;;;;;5.10;87.00;;;3.96;69.63;99998.66;6152046;23;20523;-83
2023/01/20 00:26:27;;;;;;;;;;;5.10;86.80;;;3.95;69.82;100012.00;6148564;23;19920;-82
2023/01/20 00:28:56;;;;;;;;;;;5.10;87.10;;;3.94;69.63;100011.19;6152109;23;19916;-82
2023/01/20 00:31:24;;;;;;;;;;;5.10;86.90;;;3.83;69.77;100003.72;6151851;23;19928;-82
2023/01/20 00:33:54;;;;;;;;;;;5.00;86.70;;;3.79;70.16;100012.97;6150768;23;19931;-82
2023/01/20 00:36:22;;;;;;;;;;;5.00;87.10;;;3.83;70.36;100008.97;6151095;23;19920;-82
2023/01/20 00:38:49;;;;;;;;;;;5.00;87.30;;;3.74;70.23;100015.31;6151686;23;19939;-82
2023/01/20 00:41:17;;;;;;;;;;;4.90;87.20;;;3.76;70.32;100013.34;6151046;23;19958;-82
2023/01/20 00:43:44;;;;;;;;;;;4.90;87.30;;;3.80;70.61;100014.59;6151202;23;19922;-83
2023/01/20 00:46:11;;;;;;;;;;;4.90;87.30;;;3.84;70.30;100015.88;6149111;23;19924;-82
2023/01/20 00:48:38;;;;;;;;;;;5.00;87.30;;;3.86;70.11;100029.75;6151190;23;19920;-82
2023/01/20 00:51:08;;;;;;;;;;;4.90;87.30;;;3.88;70.27;100025.09;6151736;23;19928;-82
2023/01/20 00:53:35;;;;;;;;;;;5.00;87.10;;;3.84;69.99;100024.63;6151561;23;19920;-82
2023/01/20 00:56:02;;;;;;;;;;;5.00;87.10;;;3.83;69.93;100023.00;6150437;23;19944;-82
2023/01/20 00:58:29;;;;;;;;;;;5.00;86.90;;;3.77;70.00;100022.88;6149625;23;19979;-82
2023/01/20 01:00:57;;;;;;;;;;;4.90;87.30;;;3.76;70.30;100024.72;6150796;23;19991;-82
2023/01/20 01:03:26;;;;;;;;;;;4.90;87.30;;;3.81;70.50;100022.34;6150099;23;19917;-82
2023/01/20 01:05:53;;;;;;;;;;;4.90;87.30;;;3.86;70.51;100032.38;6150607;23;19926;-82
2023/01/20 01:08:22;;;;;;;;;;;5.00;87.40;;;3.93;70.31;100029.84;6151598;23;19921;-82
2023/01/20 01:10:49;;;;;;;;;;;5.00;87.30;;;3.91;69.94;100032.66;6150852;23;19921;-82
2023/01/20 01:13:16;;;;;;;;;;;5.00;86.90;;;3.90;69.45;100038.09;6151386;23;19928;-82
2023/01/20 01:15:48;;;;;;;;;;;5.00;86.80;;;3.85;69.55;100036.81;6148973;23;19943;-82
2023/01/20 01:18:15;;;;;;;;;;;5.00;86.80;;;3.91;69.62;100037.13;6150608;23;19916;-82
2023/01/20 01:20:43;;;;;;;;;;;5.00;86.90;;;3.92;69.76;100039.56;6151520;23;19940;-82
2023/01/20 01:23:10;;;;;;;;;;;5.00;86.60;;;3.84;69.10;100044.91;6150733;23;20350;-82
2023/01/20 01:25:38;;;;;;;;;;;5.00;86.30;;;3.81;69.71;100042.66;6149478;23;20027;-82
2023/01/20 01:28:05;;;;;;;;;;;4.90;86.90;;;3.84;69.88;100040.44;6150972;23;20006;-82
2023/01/20 01:30:32;;;;;;;;;;;4.90;86.80;;;3.86;69.59;100048.19;6150651;23;20266;-82
2023/01/20 01:32:59;;;;;;;;;;;5.00;86.90;;;3.85;69.65;100049.19;6151312;23;19920;-82
2023/01/20 01:35:26;;;;;;;;;;;4.90;86.90;;;3.90;69.81;100051.28;6150425;23;19920;-82
2023/01/20 01:37:53;;;;;;;;;;;5.00;86.90;;;3.91;69.57;100048.50;6151324;23;19921;-82
2023/01/20 01:40:20;;;;;;;;;;;5.00;86.90;;;3.83;69.55;100053.81;6151076;23;19917;-82
2023/01/20 01:42:48;;;;;;;;;;;5.00;86.90;;;3.85;69.84;100057.91;6150517;23;20453;-82
2023/01/20 01:45:23;;;;;;;;;;;5.00;86.90;;;3.90;69.60;100061.84;6149160;23;20000;-82
2023/01/20 01:47:54;;;;;;;;;;;5.00;86.90;;;3.94;69.59;100071.84;6150397;23;20433;-82
2023/01/20 01:50:23;;;;;;;;;;;5.10;86.90;;;3.93;69.69;100070.22;6150834;23;19924;-82
2023/01/20 01:52:52;;;;;;;;;;;5.00;86.60;;;3.97;69.69;100071.50;6150698;23;19928;-82
2023/01/20 01:55:22;;;;;;;;;;;5.10;86.80;;;3.96;69.65;100069.88;6150993;23;19923;-82
2023/01/20 01:57:51;;;;;;;;;;;5.10;86.70;;;3.95;69.49;100065.56;6150923;23;19920;-82
2023/01/20 02:00:19;;;;;;;;;;;5.10;86.70;;;3.95;69.43;100070.03;6151075;23;19952;-82
2023/01/20 02:02:46;;;;;;;;;;;5.10;86.80;;;3.94;69.59;100074.50;6148521;23;19924;-82
2023/01/20 02:05:15;;;;;;;;;;;5.10;87.00;;;3.99;69.80;100077.41;6151116;23;19920;-82
2023/01/20 02:07:44;;;;;;;;;;;5.10;86.90;;;3.99;69.56;100073.97;6149964;23;19924;-82
2023/01/20 02:10:11;;;;;;;;;;;5.10;87.00;;;4.00;69.81;100079.09;6151253;23;19924;-82
2023/01/20 02:12:39;;;;;;;;;;;5.10;86.90;;;4.02;69.50;100082.34;6150917;23;19921;-82
2023/01/20 02:15:08;;;;;;;;;;;5.20;86.70;;;4.05;69.57;100078.53;6151223;23;19921;-82
2023/01/20 02:17:42;;;;;;;;;;;5.10;86.60;;;3.98;69.19;100083.69;6150620;23;19927;-82
2023/01/20 02:20:33;;;;;;;;;;;5.10;86.30;;;3.99;69.22;100082.69;6149249;23;19921;-82
2023/01/20 02:23:06;;;;;;;;;;;5.10;86.60;;;3.99;69.42;100085.34;6149049;23;19916;-82
2023/01/20 02:25:57;;;;;;;;;;;5.10;86.60;;;3.98;69.05;100086.34;6151405;23;19971;-82
2023/01/20 02:28:53;;;;;;;;;;;5.10;86.60;;;3.99;69.28;100089.78;6139887;23;19920;-82
2023/01/20 02:31:58;;;;;;;;;;;5.10;86.50;;;3.96;69.13;100088.34;6151050;23;20376;-82
2023/01/20 02:34:28;;;;;;;;;;;5.00;86.50;;;3.97;69.29;100092.63;6151346;23;19920;-82
2023/01/20 02:36:57;;;;;;;;;;;5.10;86.70;;;3.98;69.40;100096.88;6151366;23;19955;-82
2023/01/20 02:39:28;;;;;;;;;;;5.10;86.60;;;3.96;69.18;100106.00;6152845;23;19931;-82
2023/01/20 02:41:59;;;;;;;;;;;5.00;86.50;;;3.94;69.01;100105.34;6152234;23;20015;-82
2023/01/20 02:44:31;;;;;;;;;;;5.00;86.30;;;3.92;69.38;100105.53;6152771;23;20340;-83
2023/01/20 02:47:03;;;;;;;;;;;5.00;86.50;;;3.90;69.34;100101.41;6152032;23;20332;-82
2023/01/20 02:49:33;;;;;;;;;;;5.00;86.70;;;3.89;69.03;100100.59;6152792;23;19922;-82
2023/01/20 02:52:05;;;;;;;;;;;5.00;86.70;;;3.93;69.43;100106.34;6152436;23;19921;-82
2023/01/20 02:54:35;;;;;;;;;;;5.00;86.60;;;3.93;69.28;100109.78;6150890;23;20355;-82
2023/01/20 02:57:03;;;;;;;;;;;5.00;86.60;;;3.81;69.84;100111.22;6151863;23;20270;-82
2023/01/20 02:59:33;;;;;;;;;;;4.90;86.70;;;3.79;70.06;100113.19;6152216;23;19939;-82
2023/01/20 03:02:04;;;;;;;;;;;4.90;86.90;;;3.85;69.85;100112.47;6151857;23;19971;-82
2023/01/20 03:04:36;;;;;;;;;;;5.00;86.90;;;3.87;69.64;100116.59;6152911;23;19920;-82
2023/01/20 03:07:04;;;;;;;;;;;5.00;86.80;;;3.91;69.47;100118.91;6151855;23;20224;-82
2023/01/20 03:09:35;;;;;;;;;;;5.00;86.70;;;3.92;69.28;100116.06;6150519;23;20006;-82
2023/01/20 03:12:09;;;;;;;;;;;5.00;86.60;;;3.87;69.48;100124.50;6152195;23;19920;-82
2023/01/20 03:14:36;;;;;;;;;;;5.00;86.60;;;3.88;69.41;100127.97;6152684;23;20340;-82
2023/01/20 03:17:04;;;;;;;;;;;5.00;86.50;;;3.87;69.74;100124.50;6151401;23;19916;-82
2023/01/20 03:19:31;;;;;;;;;;;5.00;86.60;;;3.87;69.52;100123.69;6152330;23;19971;-82
2023/01/20 03:21:58;;;;;;;;;;;5.00;86.50;;;3.88;69.34;100110.31;6152428;23;19916;-82
2023/01/20 03:24:29;;;;;;;;;;;5.00;86.40;;;3.82;69.23;100118.13;6150994;23;20310;-82
2023/01/20 03:26:56;;;;;;;;;;;5.00;86.30;;;3.85;69.51;100128.31;6150695;23;19920;-82
2023/01/20 03:29:23;;;;;;;;;;;5.00;86.50;;;3.90;69.37;100133.88;6151324;23;19920;-83
2023/01/20 03:31:52;;;;;;;;;;;5.00;86.30;;;3.92;68.88;100134.53;6152177;23;19928;-82
2023/01/20 03:34:22;;;;;;;;;;;5.10;86.20;;;3.93;68.83;100122.16;6152012;23;19920;-82
2023/01/20 03:36:50;;;;;;;;;;;5.10;86.10;;;3.92;69.10;100136.34;6151498;23;19920;-82
2023/01/20 03:39:17;;;;;;;;;;;5.00;85.90;;;3.89;69.16;100134.88;6148747;23;19936;-82
2023/01/20 03:41:53;;;;;;;;;;;5.10;86.10;;;3.87;68.86;100131.59;6150161;23;20546;-82
2023/01/20 03:44:27;;;;;;;;;;;5.00;86.10;;;3.85;68.89;100130.94;6152323;23;19920;-82
2023/01/20 03:47:02;;;;;;;;;;;5.00;86.30;;;3.86;68.92;100138.69;6150097;23;19920;-82
2023/01/20 03:49:36;;;;;;;;;;;5.00;86.10;;;3.84;69.37;100142.50;6151354;23;19927;-82
2023/01/20 03:52:07;;;;;;;;;;;5.00;86.30;;;3.87;69.29;100131.59;6152260;23;20338;-82
2023/01/20 03:54:36;;;;;;;;;;;5.00;86.20;;;3.86;68.89;100143.16;6152298;23;20351;-81
2023/01/20 03:57:08;;;;;;;;;;;5.00;85.90;;;3.82;69.24;100147.16;6150604;23;19999;-82
2023/01/20 03:59:37;;;;;;;;;;;5.00;86.10;;;3.85;68.95;100144.94;6151993;23;19927;-82
2023/01/20 04:02:06;;;;;;;;;;;5.00;86.10;;;3.87;69.20;100150.06;6152075;23;20410;-81
2023/01/20 04:04:37;;;;;;;;;;;5.00;86.20;;;3.87;68.86;100153.53;6151277;23;19920;-82
2023/01/20 04:07:05;;;;;;;;;;;5.00;86.20;;;3.83;68.98;100162.78;6150813;23;19916;-82
2023/01/20 04:09:35;;;;;;;;;;;5.00;86.20;;;3.85;69.30;100160.78;6150828;23;20003;-82
2023/01/20 04:12:02;;;;;;;;;;;5.00;86.10;;;3.84;68.94;100161.78;6152139;23;20315;-82
2023/01/20 04:14:29;;;;;;;;;;;4.90;86.10;;;3.81;68.94;100162.16;6151924;23;19928;-82
2023/01/20 04:16:58;;;;;;;;;;;5.00;86.10;;;3.80;68.79;100163.13;6150882;23;19920;-82
2023/01/20 04:19:26;;;;;;;;;;;5.00;85.90;;;3.79;68.67;100172.03;6152000;23;20333;-82
2023/01/20 04:21:59;;;;;;;;;;;4.90;86.00;;;3.82;69.01;100165.59;6150893;23;19948;-82
2023/01/20 04:24:31;;;;;;;;;;;4.90;86.10;;;3.82;68.75;100165.59;6151924;23;19943;-82
2023/01/20 04:26:58;;;;;;;;;;;5.00;86.10;;;3.84;69.27;100158.31;6150589;23;19920;-82
2023/01/20 04:29:25;;;;;;;;;;;5.00;86.10;;;3.83;69.37;100169.88;6151565;23;20074;-82
2023/01/20 04:31:58;;;;;;;;;;;5.00;86.30;;;3.84;69.43;100171.50;6151956;23;19967;-82
2023/01/20 04:34:26;;;;;;;;;;;5.00;86.20;;;3.86;68.78;100170.34;6151608;23;19920;-82
2023/01/20 04:36:54;;;;;;;;;;;5.00;85.90;;;3.85;68.96;100176.59;6150524;23;19922;-82
2023/01/20 04:39:21;;;;;;;;;;;5.00;86.10;;;3.81;68.70;100174.53;6151570;23;19921;-82
2023/01/20 04:41:48;;;;;;;;;;;5.00;85.70;;;3.76;68.91;100179.50;6151955;23;19927;-82
2023/01/20 04:44:15;;;;;;;;;;;4.90;86.10;;;3.78;68.71;100180.94;6151356;23;20003;-81
2023/01/20 04:46:42;;;;;;;;;;;4.90;85.90;;;3.76;68.93;100182.13;6150946;23;19916;-82
2023/01/20 04:49:10;;;;;;;;;;;4.90;86.30;;;3.77;68.77;100184.59;6150923;23;20465;-82
2023/01/20 04:51:37;;;;;;;;;;;4.90;86.20;;;3.81;68.84;100188.53;6151879;23;20328;-81
2023/01/20 04:54:05;;;;;;;;;;;4.90;86.10;;;3.84;68.91;100182.88;6150753;23;19920;-81
2023/01/20 04:56:32;;;;;;;;;;;4.90;86.00;;;3.83;68.70;100178.59;6151008;23;19921;-82
2023/01/20 04:58:59;;;;;;;;;;;4.90;85.90;;;3.84;68.73;100197.88;6150790;23;19916;-82
2023/01/20 05:01:26;;;;;;;;;;;4.90;85.90;;;3.84;68.44;100190.78;6151668;23;19924;-82
2023/01/20 05:03:53;;;;;;;;;;;5.00;85.90;;;3.84;69.08;100190.78;6151459;23;19989;-82
2023/01/20 05:06:20;;;;;;;;;;;5.00;85.90;;;3.86;68.85;100196.72;6150668;23;19928;-79
2023/01/20 05:08:47;;;;;;;;;;;5.00;85.90;;;3.86;69.02;100188.81;6150882;23;19916;-84
2023/01/20 05:11:15;;;;;;;;;;;5.00;85.70;;;3.90;68.42;100193.72;6150984;23;20035;-85
2023/01/20 05:13:42;;;;;;;;;;;5.10;85.70;;;3.92;68.30;100194.41;6151564;23;20003;-82
2023/01/20 05:16:10;;;;;;;;;;;5.10;85.70;;;3.91;68.34;100200.69;6151397;23;20336;-83
2023/01/20 05:18:37;;;;;;;;;;;5.00;85.50;;;3.92;68.73;100197.84;6149921;23;19916;-83
2023/01/20 05:21:06;;;;;;;;;;;5.10;85.70;;;3.91;68.71;100196.22;6151699;23;19927;-83
2023/01/20 05:23:33;;;;;;;;;;;5.10;85.70;;;3.94;68.32;100205.59;6149313;23;19917;-83
2023/01/20 05:26:00;;;;;;;;;;;5.10;85.60;;;3.94;68.57;100209.03;6150760;23;19921;-83
2023/01/20 05:28:28;;;;;;;;;;;5.10;85.60;;;3.93;68.17;100210.03;6150378;23;19917;-84
2023/01/20 05:30:55;;;;;;;;;;;5.10;85.50;;;3.92;68.49;100213.69;6151169;23;19927;-84
2023/01/20 05:33:22;;;;;;;;;;;5.10;85.50;;;3.90;68.50;100217.47;6149982;23;20038;-83
2023/01/20 05:35:49;;;;;;;;;;;5.10;85.50;;;3.88;68.70;100213.19;6150831;23;19927;-83
2023/01/20 05:38:16;;;;;;;;;;;5.10;85.60;;;3.88;68.57;100215.84;6150669;23;19951;-83
2023/01/20 05:40:43;;;;;;;;;;;5.10;85.60;;;3.90;68.81;100220.09;6150981;23;19922;-82
2023/01/20 05:43:10;;;;;;;;;;;5.10;85.60;;;3.90;68.59;100220.94;6148921;23;19944;-82
2023/01/20 05:45:39;;;;;;;;;;;5.10;85.50;;;3.91;68.68;100217.31;6151050;23;19943;-82
2023/01/20 05:48:06;;;;;;;;;;;5.10;85.50;;;3.94;68.48;100221.41;6150793;23;20397;-82
2023/01/20 05:50:33;;;;;;;;;;;5.10;85.50;;;3.95;68.42;100228.31;6149747;23;19924;-82
2023/01/20 05:53:00;;;;;;;;;;;5.10;85.40;;;3.95;68.46;100229.13;6151070;23;20394;-82
2023/01/20 05:55:27;;;;;;;;;;;5.10;85.50;;;3.99;68.66;100229.63;6150373;23;19975;-82
2023/01/20 05:57:54;;;;;;;;;;;5.10;85.50;;;4.00;68.42;100228.63;6150073;23;19917;-83
2023/01/20 06:00:21;;;;;;;;;;;5.10;85.50;;;3.98;68.33;100228.81;6150328;23;20238;-81
2023/01/20 06:02:50;;;;;;;;;;;5.10;85.50;;;3.97;68.69;100224.53;6150076;23;19916;-80
2023/01/20 06:05:17;;;;;;;;;;;5.20;85.50;;;3.97;68.58;100232.44;6149220;23;20003;-81
2023/01/20 06:07:44;;;;;;;;;;;5.20;85.70;;;3.94;68.87;100227.50;6148732;23;19944;-85
2023/01/20 06:10:11;;;;;;;;;;;5.20;85.80;;;3.95;68.89;100237.06;6150652;23;20718;-84
2023/01/20 06:12:38;;;;;;;;;;;5.10;85.90;;;3.97;68.86;100247.47;6152718;23;19920;-85
2023/01/20 06:15:06;;;;;;;;;;;5.10;85.90;;;3.98;68.58;100249.09;6152559;23;19921;-82
2023/01/20 06:17:33;;;;;;;;;;;5.10;85.70;;;3.99;68.83;100248.91;6150444;23;20514;-83
2023/01/20 06:20:03;;;;;;;;;;;5.10;85.70;;;3.98;68.79;100244.63;6150948;23;20240;-83
2023/01/20 06:22:30;;;;;;;;;;;5.20;85.70;;;4.00;68.67;100247.09;6151919;23;20002;-81
2023/01/20 06:24:57;;;;;;;;;;;5.10;85.70;;;3.97;68.60;100245.63;6152289;23;20390;-81
2023/01/20 06:27:24;;;;;;;;;;;5.20;85.70;;;3.98;68.80;100243.81;6151929;23;19922;-81
2023/01/20 06:29:50;;;;;;;;;;;5.20;85.70;;;4.00;68.49;100255.00;6152129;23;19931;-81
2023/01/20 06:32:18;;;;;;;;;;;5.20;85.70;;;3.98;68.93;100254.38;6152317;23;19920;-81
2023/01/20 06:34:44;;;;;;;;;;;5.20;85.80;;;3.97;68.71;100256.19;6152259;23;19947;-81
2023/01/20 06:37:13;;;;;;;;;;;5.20;85.70;;;3.85;68.91;100254.91;6150925;23;19931;-81
2023/01/20 06:39:40;;;;;;;;;;;5.10;85.80;;;3.84;69.18;100263.84;6151800;23;19920;-81
2023/01/20 06:42:07;;;;;;;;;;;5.10;86.30;;;3.84;69.45;100253.28;6151613;23;19920;-81
2023/01/20 06:44:34;;;;;;;;;;;5.00;86.10;;;3.84;69.04;100259.38;6151653;23;20003;-81
2023/01/20 06:47:01;;;;;;;;;;;5.00;86.10;;;3.83;69.45;100264.84;6151928;23;19924;-81
2023/01/20 06:49:28;;;;;;;;;;;5.00;86.10;;;3.85;69.03;100255.75;6152643;23;19921;-81
2023/01/20 06:51:55;;;;;;;;;;;5.00;85.90;;;3.87;68.85;100258.22;6149462;23;20074;-82
2023/01/20 06:54:24;;;;;;;;;;;5.00;86.00;;;3.90;68.88;100263.13;6152852;23;19920;-81
2023/01/20 06:56:51;;;;;;;;;;;5.00;85.90;;;3.91;68.58;100259.53;6151494;23;19947;-80
2023/01/20 06:59:18;;;;;;;;;;;5.00;85.90;;;3.93;68.99;100270.72;6151724;23;19926;-82
2023/01/20 07:01:45;;;;;;;;;;;5.00;85.90;;;3.92;68.63;100266.44;6151688;23;19967;-81
2023/01/20 07:04:13;;;;;;;;;;;5.00;85.70;;;3.95;68.42;100273.16;6152819;23;20366;-81
2023/01/20 07:06:41;;;;;;;;;;;5.00;85.70;;;3.88;68.31;100271.22;6151249;23;20258;-81
2023/01/20 07:09:10;;;;;;;;;;;5.00;85.50;;;3.87;68.19;100266.97;6150220;23;20347;-81
2023/01/20 07:11:39;;;;;;;;;;;5.00;85.60;;;3.91;68.29;100264.81;6150818;23;19920;-82
2023/01/20 07:14:07;;;;;;;;;;;5.00;85.60;;;3.93;68.14;100272.53;6152691;23;19924;-81
2023/01/20 07:16:34;;;;;;;;;;;5.00;85.30;;;3.92;68.06;100271.72;6150661;23;19932;-82
2023/01/20 07:19:01;;;;;;;;;;;5.00;85.50;;;3.91;68.45;100280.63;6152084;23;19920;-82
2023/01/20 07:21:28;;;;;;;;;;;5.00;85.70;;;3.91;68.22;100282.44;6151466;23;19927;-82
2023/01/20 07:23:55;;;;;;;;;;;5.00;85.30;;;3.92;68.23;100290.19;6151443;23;19922;-81
2023/01/20 07:26:25;;;;;;;;;;;5.00;85.40;;;3.93;68.19;100291.00;6151743;23;19920;-84
2023/01/20 07:28:53;;;;;;;;;;;5.00;85.40;;;3.89;67.96;100287.88;6151273;23;19925;-83
2023/01/20 07:31:22;;;;;;;;;;;5.00;85.30;;;3.83;68.01;100278.84;6150934;23;19998;-82
2023/01/20 07:33:50;;;;;;;;;;;5.00;85.30;;;3.85;68.25;100289.22;6152726;23;19944;-81
2023/01/20 07:36:17;;;;;;;;;;;5.10;85.40;;;3.79;68.57;100290.72;6151585;23;19939;-82
2023/01/20 07:38:47;;;;;;;;;;;5.00;85.50;;;3.82;68.25;100289.56;6151823;23;19917;-81
2023/01/20 07:41:15;;;;;;;;;;;5.00;85.50;;;3.83;68.14;100296.50;6151627;23;19939;-85
2023/01/20 07:43:42;;;;;;;;;;;5.00;85.20;;;3.81;68.34;100299.31;6152494;23;19921;-85
2023/01/20 07:46:11;;;;;;;;;;;5.00;85.40;;;3.82;67.88;100297.50;6151398;23;19924;-84
2023/01/20 07:48:38;;;;;;;;;;;5.00;85.10;;;3.84;67.60;100306.03;6150936;23;19935;-84
2023/01/20 07:51:07;;;;;;;;;;;5.00;84.70;;;3.81;67.38;100311.69;6147594;23;20311;-85
2023/01/20 07:53:36;;;;;;;;;;;5.00;84.90;;;3.77;67.67;100318.28;6152165;23;20341;-85
2023/01/20 07:56:05;;;;;;;;;;;5.00;84.70;;;3.76;67.87;100324.56;6151807;23;19920;-85
2023/01/20 07:58:32;;;;;;;;;;;4.90;85.00;;;3.73;67.42;100327.53;6151603;23;20354;-85
2023/01/20 08:01:06;;;;;;;;;;;4.90;84.80;;;3.76;67.63;100330.66;6149438;23;19916;-85
2023/01/20 08:03:35;;;;;;;;;;;4.90;85.20;;;3.77;67.57;100326.19;6152078;23;19920;-84
2023/01/20 08:06:03;;;;;;;;;;;4.90;84.90;;;3.72;67.41;100331.16;6151063;23;19924;-85
2023/01/20 08:08:30;;;;;;;;;;;4.90;84.80;;;3.74;68.00;100332.63;6152107;23;19939;-85
2023/01/20 08:10:58;;;;;;;;;;;4.90;85.10;;;3.76;68.08;100337.75;6148240;23;19920;-85
2023/01/20 08:13:25;;;;;;;;;;;4.90;85.10;;;3.74;67.44;100337.88;6151182;23;19923;-85
2023/01/20 08:15:52;;;;;;;;;;;4.90;84.70;;;3.75;67.99;100343.97;6151256;23;19952;-85
2023/01/20 08:18:19;;;;;;;;;;;4.90;84.90;;;3.70;67.73;100347.13;6150914;23;19921;-85
2023/01/20 08:20:47;;;;;;;;;;;4.90;85.10;;;3.69;67.88;100347.31;6150314;23;19924;-85
2023/01/20 08:23:14;;;;;;;;;;;4.90;85.00;;;3.74;68.02;100347.63;6150469;23;20003;-85
2023/01/20 08:25:41;;;;;;;;;;;4.90;85.10;;;3.71;67.77;100347.94;6151818;23;19920;-85
2023/01/20 08:28:08;;;;;;;;;;;4.90;85.10;;;3.70;68.43;100349.75;6151226;23;19922;-85
2023/01/20 08:30:35;;;;;;;;;;;4.90;85.50;;;3.71;68.29;100351.44;6150476;23;19983;-85
2023/01/20 08:33:02;;;;;;;;;;;4.90;85.60;;;3.70;67.94;100352.41;6149294;23;19975;-79
2023/01/20 08:35:29;;;;;;;;;;;4.90;85.10;;;3.69;67.83;100366.59;6150682;23;20028;-79
2023/01/20 08:37:57;;;;;;;;;;;4.90;84.90;;;3.71;68.05;100369.91;6151304;23;20331;-80
2023/01/20 08:40:24;;;;;;;;;;;4.80;85.10;;;3.75;68.22;100370.34;6151644;23;19920;-79
2023/01/20 08:42:51;;;;;;;;;;;4.90;85.30;;;3.76;68.37;100372.03;6151092;23;19916;-79
2023/01/20 08:45:19;;;;;;;;;;;4.90;85.50;;;3.75;67.89;100371.19;6150072;23;19926;-79
2023/01/20 08:47:45;;;;;;;;;;;4.90;85.30;;;3.75;68.79;100376.44;6150479;23;19920;-79
2023/01/20 08:50:14;;;;;;;;;;;4.90;85.70;;;3.79;68.44;100369.03;6151750;23;20015;-79
2023/01/20 08:52:41;;;;;;;;;;;4.90;85.70;;;3.75;68.79;100370.34;6151094;23;19920;-79
2023/01/20 08:55:10;;;;;;;;;;;4.90;85.60;;;3.72;68.25;100376.00;6150260;23;19979;-79
2023/01/20 08:57:37;;;;;;;;;;;4.90;85.50;;;3.73;68.42;100372.34;6151272;23;19920;-79
2023/01/20 09:00:08;;;;;;;;;;;4.90;85.70;;;3.71;68.48;100369.03;6151202;23;20007;-79
2023/01/20 09:02:36;;;;;;;;;;;4.90;85.50;;;3.73;68.36;100378.44;6151769;23;19927;-79
2023/01/20 09:05:04;;;;;;;;;;;4.90;85.70;;;3.74;68.32;100381.91;6150941;23;20399;-79
2023/01/20 09:07:31;;;;;;;;;;;4.90;85.70;;;3.71;68.78;100384.88;6151429;23;19916;-79
2023/01/20 09:09:58;;;;;;;;;;;4.90;85.80;;;3.74;68.86;100387.19;6150965;23;19921;-79
2023/01/20 09:12:26;;;;;;;;;;;4.90;86.10;;;3.74;69.16;100390.63;6145772;23;19920;-79
2023/01/20 09:14:53;;;;;;;;;;;4.90;86.10;;;3.75;69.17;100392.28;6139838;23;20438;-79
2023/01/20 09:17:20;;;;;;;;;;;4.90;86.10;;;3.77;69.16;100394.78;6139853;23;20110;-79
2023/01/20 09:19:47;;;;;;;;;;;4.90;86.00;;;3.71;68.82;100384.88;6142243;23;19927;-79
2023/01/20 09:22:14;;;;;;;;;;;4.90;85.70;;;3.76;68.71;100393.13;6150261;23;20006;-79
2023/01/20 09:24:41;;;;;;;;;;;4.90;85.90;;;3.76;68.99;100393.13;6151567;23;19939;-79
2023/01/20 09:27:08;;;;;;;;;;;4.90;85.80;;;3.79;68.87;100400.69;6150538;23;19924;-79
2023/01/20 09:29:36;;;;;;;;;;;4.90;86.00;;;3.80;68.28;100405.78;6150829;23;19920;-79
2023/01/20 09:32:03;;;;;;;;;;;4.90;85.70;;;3.79;68.89;100417.31;6150926;23;19920;-79
2023/01/20 09:34:30;;;;;;;;;;;4.90;86.10;;;3.80;68.73;100399.69;6150825;23;20343;-79
2023/01/20 09:43:52;;;;;;;;;;;4.90;86.10;;;3.75;68.87;100407.28;6150194;23;19921;-79
2023/01/20 09:45:27;;;;;;;;;;;4.90;86.00;;;3.81;68.22;100404.00;6148675;23;19928;-79
2023/01/20 09:48:00;;;;;;;;;;;5.00;85.30;;;3.77;68.62;100411.41;6149016;23;19921;-79
2023/01/20 09:53:34;;;;;;;;;;;5.00;85.70;;;3.84;68.61;100406.28;6150354;23;19921;-79
2023/01/20 09:56:04;;;;;;;;;;;5.00;85.80;;;3.84;68.07;100408.91;6150103;23;19924;-79
2023/01/20 09:58:36;;;;;;;;;;;5.00;85.10;;;3.84;68.30;100411.56;6151064;23;20015;-79
2023/01/20 10:01:10;;;;;;;;;;;5.00;85.50;;;3.84;67.98;100411.56;6150395;23;19920;-79
2023/01/20 10:03:42;;;;;;;;;;;5.00;85.30;;;3.83;67.98;100413.38;6150511;23;19920;-79
2023/01/20 10:06:12;;;;;;;;;;;5.00;85.30;;;3.84;67.90;100422.09;6150216;23;20422;-79
2023/01/20 10:08:45;;;;;;;;;;;4.90;85.30;;;3.83;68.03;100415.19;6150953;23;19920;-79
2023/01/20 10:11:16;;;;;;;;;;;5.00;85.30;;;3.83;68.42;100417.81;6147348;23;19923;-79
2023/01/20 10:13:50;;;;;;;;;;;5.00;85.60;;;3.87;68.71;100419.97;6148706;23;20533;-79
2023/01/20 10:16:26;;;;;;;;;;;5.00;85.90;;;3.91;69.31;100419.63;6151062;23;20399;-79
2023/01/20 10:18:57;;;;;;;;;;;5.00;86.10;;;3.93;69.06;100420.28;6150557;23;19999;-79
2023/01/20 10:21:31;;;;;;;;;;;5.00;85.90;;;3.90;68.41;100415.31;6149251;23;20003;-79
2023/01/20 10:24:02;;;;;;;;;;;5.00;85.50;;;3.92;69.10;100414.19;6151265;23;19927;-79
2023/01/20 10:26:32;;;;;;;;;;;5.10;86.30;;;3.95;68.46;100424.38;6150068;23;20254;-79
2023/01/20 10:29:01;;;;;;;;;;;5.10;85.60;;;3.92;68.43;100426.56;6149343;23;20386;-79
2023/01/20 10:31:34;;;;;;;;;;;5.10;85.60;;;3.93;68.78;100423.72;6150506;23;20518;-79
2023/01/20 10:34:07;;;;;;;;;;;5.10;85.90;;;3.98;69.26;100421.41;6150685;23;19917;-79
2023/01/20 10:36:34;;;;;;;;;;;5.10;86.10;;;4.03;68.94;100421.72;6150024;23;19978;-79
2023/01/20 10:39:04;;;;;;;;;;;5.20;86.30;;;4.04;68.26;100422.53;6150732;23;20248;-79
2023/01/20 10:41:36;;;;;;;;;;;5.10;85.10;;;4.00;68.14;100414.16;6150534;23;19920;-80
2023/01/20 10:44:06;;;;;;;;;;;5.20;85.30;;;3.98;68.88;100408.22;6150350;23;20330;-79
2023/01/20 10:46:45;;;;;;;;;;;5.10;85.70;;;3.99;68.06;100415.13;6150012;23;19951;-79
2023/01/20 10:49:35;;;;;;;;;;;5.20;85.10;;;4.03;67.92;100416.44;6150628;23;20344;-79
2023/01/20 10:52:14;;;;;;;;;;;5.20;85.10;;;4.03;68.18;100410.34;6150870;23;19916;-79
2023/01/20 10:54:46;;;;;;;;;;;5.20;85.10;;;4.00;68.00;100408.88;6150860;23;19926;-79
2023/01/20 10:57:14;;;;;;;;;;;5.30;85.10;;;4.02;67.81;100411.34;6151698;23;19998;-77
2023/01/20 10:59:43;;;;;;;;;;;5.20;84.90;;;4.04;68.06;100410.16;6150957;23;20291;-77
2023/01/20 11:02:19;;;;;;;;;;;5.20;85.00;;;4.07;67.36;100412.47;6150622;23;19956;-77
2023/01/20 11:04:49;;;;;;;;;;;5.20;84.60;;;4.09;67.68;100413.13;6152561;23;20016;-77
2023/01/20 11:07:17;;;;;;;;;;;5.30;85.20;;;4.10;67.71;100412.16;6152114;23;19920;-78
2023/01/20 11:09:46;;;;;;;;;;;5.30;84.70;;;4.12;68.39;100422.53;6151508;23;20407;-78
2023/01/20 11:12:17;;;;;;;;;;;5.30;85.40;;;4.16;67.92;100425.66;6152066;23;20161;-78
2023/01/20 11:14:45;;;;;;;;;;;5.30;85.30;;;4.15;68.33;100422.19;6153007;23;20042;-77
2023/01/20 11:17:17;;;;;;;;;;;5.30;85.40;;;4.14;67.51;100420.53;6151427;23;19917;-77
2023/01/20 11:19:46;;;;;;;;;;;5.30;84.90;;;4.15;67.44;100422.19;6152068;23;19920;-78
2023/01/20 11:22:19;;;;;;;;;;;5.30;84.70;;;4.16;67.29;100417.72;6150788;23;20354;-78
2023/01/20 11:24:47;;;;;;;;;;;5.30;84.90;;;4.18;68.13;100421.00;6152569;23;19920;-77
2023/01/20 11:27:16;;;;;;;;;;;5.40;85.10;;;4.21;67.82;100420.69;6151550;23;20324;-78
2023/01/20 11:29:48;;;;;;;;;;;5.40;85.10;;;4.23;67.71;100416.03;6150346;23;19955;-78
2023/01/20 11:32:36;;;;;;;;;;;5.40;84.80;;;4.24;67.71;100418.50;6149747;23;19921;-78
2023/01/20 11:35:19;;;;;;;;;;;5.40;84.80;;;4.23;67.02;100422.16;6150357;23;20343;-78
2023/01/20 11:37:46;;;;;;;;;;;5.40;83.90;;;4.18;65.76;100419.19;6149035;23;20011;-78
2023/01/20 11:40:19;;;;;;;;;;;5.40;82.70;;;4.15;66.15;100419.56;6149279;23;19920;-78
2023/01/20 11:42:48;;;;;;;;;;;5.30;83.60;;;4.14;66.16;100417.88;6151000;23;20111;-79